Time;durP1;ratioP1;P1;durP2;ratioP2;P2;SDS_P1;SDS_P2;PMS_P1;PMS_P2;Temp;Humidity;BMP_temperature;BMP_pressure;BME280_temperature;BME280_humidity;BME280_pressure;Samples;Min_cycle;Max_cycle;Signal;HPM_P1;HPM_P2
2023/04/09 00:02:11;;;;;;;;;37.00;32.25;;;;;12.77;100.00;102123.19;5021530;28;48048;-74
2023/04/09 00:04:36;;;;;;;;;39.00;33.75;;;;;12.74;100.00;102120.72;5022687;28;45236;-74
2023/04/09 00:07:02;;;;;;;;;37.25;29.50;;;;;12.76;100.00;102125.06;5022887;28;45333;-75
2023/04/09 00:09:27;;;;;;;;;33.75;29.00;;;;;12.77;100.00;102123.19;5005024;28;45616;-75
2023/04/09 00:11:52;;;;;;;;;37.50;33.50;;;;;12.69;100.00;102115.66;5004940;28;47069;-75
2023/04/09 00:14:18;;;;;;;;;40.00;35.00;;;;;12.76;100.00;102108.69;5026101;28;45163;-74
2023/04/09 00:16:43;;;;;;;;;28.50;27.50;;;;;12.82;100.00;102119.06;5032602;28;45408;-74
2023/04/09 00:19:10;;;;;;;;;35.25;33.00;;;;;12.87;100.00;102121.41;5005068;28;45179;-74
2023/04/09 00:21:36;;;;;;;;;32.00;29.75;;;;;12.90;100.00;102112.97;5015346;28;47232;-74
2023/04/09 00:24:01;;;;;;;;;43.00;34.50;;;;;12.80;100.00;102110.16;5025356;28;45277;-74
2023/04/09 00:26:26;;;;;;;;;33.00;30.50;;;;;12.86;100.00;102117.81;5022404;28;45416;-74
2023/04/09 00:28:52;;;;;;;;;46.00;35.00;;;;;12.81;100.00;102111.00;5005257;28;45452;-73
2023/04/09 00:31:17;;;;;;;;;31.25;28.75;;;;;12.85;100.00;102107.06;5004604;28;48527;-74
2023/04/09 00:33:42;;;;;;;;;40.25;33.00;;;;;12.85;100.00;102098.88;5004423;28;45344;-73
2023/04/09 00:36:08;;;;;;;;;38.50;32.50;;;;;12.92;100.00;102115.56;5005183;28;45396;-74
2023/04/09 00:38:33;;;;;;;;;36.00;32.00;;;;;12.89;100.00;102103.06;5024849;28;45368;-73
2023/04/09 00:40:58;;;;;;;;;33.50;30.50;;;;;12.92;100.00;102107.38;5025516;28;45331;-74
2023/04/09 00:43:24;;;;;;;;;37.00;31.00;;;;;12.91;100.00;102106.53;5025501;28;45320;-73
2023/04/09 00:45:50;;;;;;;;;36.75;32.50;;;;;12.91;100.00;102106.53;5010954;28;45435;-73
2023/04/09 00:48:16;;;;;;;;;34.50;32.00;;;;;12.88;100.00;102104.91;5025955;28;45339;-73
2023/04/09 00:50:41;;;;;;;;;32.75;29.50;;;;;12.84;100.00;102099.84;5023636;28;47338;-72
2023/04/09 00:53:08;;;;;;;;;32.25;29.00;;;;;12.85;100.00;102096.13;5007545;28;45233;-72
2023/04/09 00:55:34;;;;;;;;;39.75;30.25;;;;;12.88;100.00;102095.84;5025644;28;45269;-73
2023/04/09 00:58:00;;;;;;;;;38.25;30.25;;;;;12.90;100.00;102093.00;5025671;28;45618;-72
2023/04/09 01:00:26;;;;;;;;;34.50;31.50;;;;;12.93;100.00;102104.50;5025548;28;46344;-73
2023/04/09 01:02:52;;;;;;;;;36.50;29.00;;;;;12.85;100.00;102085.22;5025457;28;45418;-73
2023/04/09 01:05:18;;;;;;;;;36.00;29.00;;;;;12.84;100.00;102080.78;5007661;28;45448;-73
2023/04/09 01:08:00;;;;;;;;;35.00;30.25;;;;;12.93;100.00;102100.94;5007836;28;45375;-73
2023/04/09 01:10:37;;;;;;;;;41.00;33.25;;;;;12.94;100.00;102098.06;5025059;28;46132;-74
2023/04/09 01:13:08;;;;;;;;;36.00;34.25;;;;;12.90;100.00;102093.88;5032691;28;45470;-73
2023/04/09 01:15:40;;;;;;;;;36.50;33.25;;;;;12.82;100.00;102091.81;5040609;28;45233;-74
2023/04/09 01:18:17;;;;;;;;;40.25;33.75;;;;;12.77;100.00;102094.06;5027639;28;45571;-73
2023/04/09 01:20:55;;;;;;;;;33.00;31.25;;;;;12.74;100.00;102094.31;5044887;28;45321;-74
2023/04/09 01:23:52;;;;;;;;;35.50;28.00;;;;;12.73;100.00;102098.03;5027245;28;46081;-74
2023/04/09 01:26:33;;;;;;;;;39.50;32.75;;;;;12.73;100.00;102091.69;5026874;28;45455;-74
2023/04/09 01:29:01;;;;;;;;;31.50;29.75;;;;;12.72;100.00;102089.97;5030536;28;45324;-73
2023/04/09 01:31:31;;;;;;;;;42.25;35.75;;;;;12.66;100.00;102091.34;5044941;28;45743;-73
2023/04/09 01:33:57;;;;;;;;;34.25;30.50;;;;;12.64;100.00;102082.44;5026874;28;45346;-73
2023/04/09 01:36:26;;;;;;;;;37.25;34.50;;;;;12.65;100.00;102077.84;5044848;28;45227;-73
2023/04/09 01:38:54;;;;;;;;;38.75;35.00;;;;;12.67;100.00;102084.03;5045293;28;45498;-73
2023/04/09 01:41:22;;;;;;;;;30.50;28.75;;;;;12.68;100.00;102083.94;5026625;28;45411;-73
2023/04/09 01:43:49;;;;;;;;;33.25;30.00;;;;;12.59;100.00;102062.00;5026627;28;45383;-73
2023/04/09 01:46:17;;;;;;;;;30.25;29.00;;;;;12.67;100.00;102081.31;5031606;28;45385;-73
2023/04/09 01:48:42;;;;;;;;;41.75;35.25;;;;;12.68;100.00;102080.31;5024270;28;45349;-73
2023/04/09 01:51:08;;;;;;;;;34.75;31.50;;;;;12.67;100.00;102076.72;5024459;28;46226;-73
2023/04/09 01:53:34;;;;;;;;;32.25;29.75;;;;;12.61;100.00;102070.94;5024711;28;45315;-73
2023/04/09 01:56:00;;;;;;;;;36.75;32.75;;;;;12.67;100.00;102079.47;5006695;28;45458;-73
2023/04/09 01:58:26;;;;;;;;;40.00;36.00;;;;;12.62;100.00;102073.53;5025121;28;45337;-73
2023/04/09 02:00:58;;;;;;;;;44.50;35.25;;;;;12.70;100.00;102072.91;5024278;28;45253;-73
2023/04/09 02:03:30;;;;;;;;;42.25;34.75;;;;;12.67;100.00;102070.41;5024855;28;45461;-73
2023/04/09 02:06:06;;;;;;;;;32.75;32.25;;;;;12.67;100.00;102060.38;5006537;28;45377;-73
2023/04/09 02:08:34;;;;;;;;;32.50;30.50;;;;;12.59;100.00;102048.38;5023714;28;45489;-74
2023/04/09 02:11:03;;;;;;;;;44.75;32.75;;;;;12.61;100.00;102057.31;5006045;28;46101;-73
2023/04/09 02:13:31;;;;;;;;;36.25;31.00;;;;;12.60;100.00;102063.75;5024227;28;45209;-73
2023/04/09 02:15:58;;;;;;;;;42.25;33.00;;;;;12.53;100.00;102065.25;5019219;28;45552;-73
2023/04/09 02:18:26;;;;;;;;;37.75;34.00;;;;;12.51;100.00;102069.97;5024567;28;45260;-73
2023/04/09 02:20:53;;;;;;;;;40.00;32.50;;;;;12.55;100.00;102063.28;5005686;28;47103;-73
2023/04/09 02:23:19;;;;;;;;;43.25;36.00;;;;;12.49;100.00;102061.94;5024015;28;45264;-73
2023/04/09 02:25:44;;;;;;;;;36.50;31.50;;;;;12.57;100.00;102062.13;5005973;28;45216;-73
2023/04/09 02:28:10;;;;;;;;;37.00;32.50;;;;;12.55;100.00;102060.56;5024422;28;45289;-73
2023/04/09 02:30:35;;;;;;;;;35.50;30.50;;;;;12.51;100.00;102048.16;5024073;28;45526;-73
2023/04/09 02:33:00;;;;;;;;;34.50;31.25;;;;;12.52;100.00;102045.31;5006255;28;48340;-73
2023/04/09 02:35:25;;;;;;;;;41.25;34.75;;;;;12.55;100.00;102053.25;5023999;28;45211;-73
2023/04/09 02:37:51;;;;;;;;;40.25;31.25;;;;;12.52;100.00;102041.72;5024563;28;45360;-73
2023/04/09 02:40:16;;;;;;;;;37.25;32.00;;;;;12.51;100.00;102039.97;5023567;28;46771;-73
2023/04/09 02:42:41;;;;;;;;;38.50;33.25;;;;;12.55;100.00;102041.47;5006196;28;45498;-73
2023/04/09 02:45:07;;;;;;;;;36.50;29.75;;;;;12.59;100.00;102051.09;5027954;28;45487;-73
2023/04/09 02:47:32;;;;;;;;;50.25;37.00;;;;;12.50;100.00;102044.56;5024391;28;45506;-73
2023/04/09 02:49:58;;;;;;;;;35.50;34.50;;;;;12.49;100.00;102040.97;5027037;28;45556;-73
2023/04/09 02:52:24;;;;;;;;;35.50;29.25;;;;;12.47;100.00;102037.53;5015629;28;45384;-73
2023/04/09 02:54:51;;;;;;;;;35.00;32.00;;;;;12.51;100.00;102038.13;5005785;28;45423;-73
2023/04/09 02:57:16;;;;;;;;;35.75;34.75;;;;;12.46;100.00;102041.25;5024058;28;45571;-73
2023/04/09 02:59:42;;;;;;;;;36.25;32.00;;;;;12.37;100.00;102041.16;5023357;28;45555;-73
2023/04/09 03:02:07;;;;;;;;;36.25;31.25;;;;;12.31;100.00;102039.81;5005915;28;45355;-73
2023/04/09 03:04:32;;;;;;;;;45.75;36.50;;;;;12.25;100.00;102034.88;5005469;28;45261;-74
2023/04/09 03:06:57;;;;;;;;;43.50;38.50;;;;;12.09;100.00;102026.25;5024475;28;45515;-74
2023/04/09 03:09:23;;;;;;;;;36.00;35.25;;;;;12.06;100.00;102015.59;5005255;28;48201;-73
2023/04/09 03:11:48;;;;;;;;;37.00;35.25;;;;;12.03;100.00;102021.31;5023531;28;45402;-73
2023/04/09 03:14:14;;;;;;;;;30.00;29.75;;;;;11.99;100.00;102020.69;5026489;28;45287;-73
2023/04/09 03:16:40;;;;;;;;;40.50;35.00;;;;;11.95;100.00;102016.50;5034302;28;45206;-73
2023/04/09 03:19:05;;;;;;;;;42.25;36.25;;;;;11.93;100.00;102014.88;5023397;28;45684;-73
2023/04/09 03:21:31;;;;;;;;;46.25;37.50;;;;;11.92;100.00;102024.03;5023302;28;45217;-73
2023/04/09 03:23:57;;;;;;;;;44.75;40.00;;;;;11.88;100.00;102017.97;5005865;28;45472;-73
2023/04/09 03:26:22;;;;;;;;;38.25;31.00;;;;;11.92;100.00;102021.31;5005586;28;45651;-72
2023/04/09 03:28:47;;;;;;;;;44.50;37.75;;;;;11.83;100.00;102003.03;5005324;28;48101;-73
2023/04/09 03:31:13;;;;;;;;;43.25;34.75;;;;;11.87;100.00;102015.38;5005327;28;45270;-73
2023/04/09 03:33:38;;;;;;;;;32.50;32.50;;;;;11.85;100.00;102009.19;5005550;28;46639;-73
2023/04/09 03:36:04;;;;;;;;;40.50;33.25;;;;;11.74;100.00;102009.19;5005580;28;45269;-73
2023/04/09 03:38:30;;;;;;;;;44.00;36.00;;;;;11.62;100.00;102014.63;5022801;28;45327;-73
2023/04/09 03:40:55;;;;;;;;;43.75;37.25;;;;;11.60;100.00;102000.28;5022953;28;45372;-73
2023/04/09 03:43:21;;;;;;;;;45.00;38.00;;;;;11.55;100.00;101991.59;5021978;28;45269;-73
2023/04/09 03:45:46;;;;;;;;;41.50;36.00;;;;;11.61;100.00;102015.63;5014236;28;45327;-74
2023/04/09 03:48:11;;;;;;;;;47.25;38.75;;;;;11.51;100.00;102003.75;5022770;28;46303;-73
2023/04/09 03:50:38;;;;;;;;;41.25;34.50;;;;;11.49;100.00;102016.59;5005090;28;45247;-73
2023/04/09 03:53:04;;;;;;;;;50.25;38.00;;;;;11.49;100.00;102005.72;5022959;28;45309;-73
2023/04/09 03:55:30;;;;;;;;;51.75;39.75;;;;;11.41;100.00;102013.63;5021841;28;45427;-74
2023/04/09 03:57:55;;;;;;;;;40.25;36.00;;;;;11.35;100.00;101992.34;5022402;28;46438;-74
2023/04/09 04:00:21;;;;;;;;;43.75;38.50;;;;;11.42;100.00;102007.19;5022974;28;45133;-73
2023/04/09 04:02:46;;;;;;;;;42.75;37.75;;;;;11.48;100.00;102014.88;5022859;28;45216;-73
2023/04/09 04:05:12;;;;;;;;;48.25;38.75;;;;;11.50;100.00;102007.44;5005523;28;45514;-73
2023/04/09 04:07:37;;;;;;;;;44.50;38.00;;;;;11.48;100.00;102008.56;5022460;28;45462;-73
2023/04/09 04:10:06;;;;;;;;;45.25;38.50;;;;;11.38;100.00;101992.13;5022673;28;45305;-73
2023/04/09 04:12:31;;;;;;;;;45.75;39.75;;;;;11.40;100.00;102006.44;5025425;28;45515;-74
2023/04/09 04:14:57;;;;;;;;;49.25;39.00;;;;;11.24;100.00;101982.34;5017810;28;45243;-73
2023/04/09 04:17:22;;;;;;;;;46.00;38.00;;;;;11.30;100.00;102000.03;5042421;28;45349;-74
2023/04/09 04:19:47;;;;;;;;;42.25;37.75;;;;;11.23;100.00;101998.78;5008650;28;45312;-73
2023/04/09 04:22:13;;;;;;;;;55.00;42.50;;;;;11.10;100.00;101982.59;5024863;28;45513;-73
2023/04/09 04:24:38;;;;;;;;;51.25;41.75;;;;;11.08;100.00;101994.56;5035665;28;45455;-73
2023/04/09 04:27:04;;;;;;;;;47.75;39.75;;;;;11.09;100.00;101999.03;5030386;28;46756;-73
2023/04/09 04:29:29;;;;;;;;;33.75;28.25;;;;;11.02;100.00;101989.63;5024972;28;45284;-74
2023/04/09 04:31:54;;;;;;;;;44.75;38.25;;;;;11.00;100.00;102002.47;5008124;28;45300;-73
2023/04/09 04:34:20;;;;;;;;;44.00;37.00;;;;;10.91;100.00;102004.91;5026642;28;45221;-73
2023/04/09 04:36:45;;;;;;;;;52.00;40.75;;;;;10.78;100.00;101995.13;5025510;28;45623;-73
2023/04/09 04:39:10;;;;;;;;;40.00;37.25;;;;;10.79;100.00;102003.16;5025537;28;50319;-73
2023/04/09 04:41:35;;;;;;;;;54.25;40.00;;;;;10.82;100.00;102002.03;5025886;28;45875;-72
2023/04/09 04:44:01;;;;;;;;;51.75;38.50;;;;;10.73;100.00;102006.38;5026591;28;45256;-73
2023/04/09 04:46:26;;;;;;;;;52.75;42.00;;;;;10.61;100.00;101996.41;5029114;28;46566;-73
2023/04/09 04:48:51;;;;;;;;;52.25;40.00;;;;;10.67;100.00;102011.38;5025908;28;45324;-73
2023/04/09 04:51:17;;;;;;;;;51.25;38.00;;;;;10.60;100.00;102013.69;5007561;28;45355;-73
2023/04/09 04:53:42;;;;;;;;;57.00;41.75;;;;;10.56;100.00;102016.78;5008299;28;45290;-73
2023/04/09 04:56:14;;;;;;;;;57.25;42.50;;;;;10.52;100.00;102024.28;5007299;28;47367;-73
2023/04/09 04:58:41;;;;;;;;;49.50;39.25;;;;;10.49;100.00;102019.97;5007583;28;45317;-73
2023/04/09 05:01:06;;;;;;;;;54.00;41.00;;;;;10.55;100.00;102026.78;5025486;28;45240;-73
2023/04/09 05:03:32;;;;;;;;;43.75;38.50;;;;;10.61;100.00;102018.16;5025857;28;45543;-73
2023/04/09 05:05:57;;;;;;;;;55.00;43.25;;;;;10.65;100.00;102022.38;5024890;28;50423;-73
2023/04/09 05:08:22;;;;;;;;;43.50;38.25;;;;;10.52;100.00;102022.44;5025257;28;45429;-73
2023/04/09 05:10:48;;;;;;;;;53.25;41.25;;;;;10.54;100.00;102034.06;5007289;28;45328;-73
2023/04/09 05:13:13;;;;;;;;;54.75;42.00;;;;;10.60;100.00;102019.13;5025707;28;45248;-73
2023/04/09 05:15:40;;;;;;;;;42.00;34.75;;;;;10.69;100.00;102026.59;5020519;28;48122;-74
2023/04/09 05:18:06;;;;;;;;;49.75;40.50;;;;;10.69;100.00;102032.03;5007194;28;45447;-74
2023/04/09 05:20:32;;;;;;;;;52.25;40.00;;;;;10.64;100.00;102034.25;5007232;28;45451;-74
2023/04/09 05:22:57;;;;;;;;;59.75;44.50;;;;;10.65;100.00;102035.09;5025732;28;45325;-73
2023/04/09 05:25:23;;;;;;;;;51.00;42.50;;;;;10.57;100.00;102022.09;5006512;28;47068;-74
2023/04/09 05:27:48;;;;;;;;;55.50;43.00;;;;;10.70;100.00;102028.34;5007096;28;47206;-74
2023/04/09 05:30:14;;;;;;;;;51.00;40.25;;;;;10.71;100.00;102034.63;5007207;28;45282;-74
2023/04/09 05:32:39;;;;;;;;;56.25;42.25;;;;;10.74;100.00;102037.97;5007659;28;45245;-74
2023/04/09 05:35:05;;;;;;;;;53.50;40.25;;;;;10.84;100.00;102033.56;5006559;28;47263;-74
2023/04/09 05:37:30;;;;;;;;;48.00;39.75;;;;;10.93;100.00;102035.56;5024928;28;45270;-74
2023/04/09 05:39:56;;;;;;;;;40.25;36.00;;;;;10.96;100.00;102041.78;5006609;28;45387;-74
2023/04/09 05:42:21;;;;;;;;;54.50;40.75;;;;;10.94;100.00;102036.44;5025381;28;45532;-74
2023/04/09 05:44:46;;;;;;;;;43.00;37.50;;;;;10.95;100.00;102040.03;5028825;28;45818;-74
2023/04/09 05:47:12;;;;;;;;;33.25;33.00;;;;;10.97;100.00;102043.47;5006529;28;45531;-73
2023/04/09 05:49:37;;;;;;;;;54.50;42.00;;;;;10.95;100.00;102038.19;5006867;28;45510;-74
2023/04/09 05:52:02;;;;;;;;;50.50;41.50;;;;;11.00;100.00;102049.56;5025140;28;45320;-74
2023/04/09 05:54:28;;;;;;;;;48.75;39.25;;;;;10.97;100.00;102038.91;5006270;28;47040;-74
2023/04/09 05:56:53;;;;;;;;;51.00;40.75;;;;;10.97;100.00;102038.91;5023285;28;45418;-74
2023/04/09 05:59:18;;;;;;;;;50.25;41.25;;;;;11.05;100.00;102033.75;5006662;28;45301;-74
2023/04/09 06:01:44;;;;;;;;;47.25;38.50;;;;;11.03;100.00;102029.44;5006970;28;45510;-72
2023/04/09 06:04:09;;;;;;;;;49.25;39.75;;;;;11.13;100.00;102035.84;5024171;28;45451;-73
2023/04/09 06:06:37;;;;;;;;;55.00;42.00;;;;;11.27;100.00;102044.66;5006209;28;46205;-74
2023/04/09 06:09:03;;;;;;;;;46.75;38.75;;;;;11.45;100.00;102036.91;5024015;28;45186;-74
2023/04/09 06:11:28;;;;;;;;;47.25;39.75;;;;;11.58;100.00;102048.53;5006889;28;45269;-74
2023/04/09 06:13:54;;;;;;;;;55.75;42.25;;;;;11.76;100.00;102050.81;5024330;28;46306;-73
2023/04/09 06:16:19;;;;;;;;;51.75;42.75;;;;;11.79;100.00;102061.44;5026075;28;45261;-73
2023/04/09 06:18:45;;;;;;;;;53.75;42.25;;;;;11.65;100.00;102054.34;5030556;28;45362;-73
2023/04/09 06:21:12;;;;;;;;;48.75;40.25;;;;;11.76;100.00;102056.25;5024465;28;45220;-73
2023/04/09 06:23:38;;;;;;;;;48.00;40.00;;;;;11.86;100.00;102059.94;5005701;28;47225;-74
2023/04/09 06:26:04;;;;;;;;;54.75;41.25;;;;;12.01;100.00;102062.28;5023554;28;45347;-73
2023/04/09 06:28:30;;;;;;;;;53.75;41.25;;;;;12.14;100.00;102055.81;5023801;28;45256;-74
2023/04/09 06:30:56;;;;;;;;;59.50;44.00;;;;;12.28;100.00;102064.56;5005893;28;45413;-74
2023/04/09 06:33:22;;;;;;;;;53.50;42.25;;;;;12.46;100.00;102067.63;5023290;28;45364;-73
2023/04/09 06:35:48;;;;;;;;;51.50;41.00;;;;;12.60;100.00;102059.16;4988072;28;45233;-74
2023/04/09 06:38:14;;;;;;;;;55.50;41.50;;;;;12.73;100.00;102064.44;5021858;28;45278;-73
2023/04/09 06:40:40;;;;;;;;;55.75;44.50;;;;;12.83;100.00;102070.84;5023816;28;45297;-73
2023/04/09 06:43:05;;;;;;;;;55.00;44.75;;;;;13.08;100.00;102065.00;5005651;28;46466;-75
2023/04/09 06:45:32;;;;;;;;;55.25;42.00;;;;;13.31;100.00;102048.53;5027674;28;45264;-74
2023/04/09 06:47:58;;;;;;;;;54.50;44.00;;;;;13.31;100.00;102062.16;5023784;28;45534;-74
2023/04/09 06:50:23;;;;;;;;;53.25;42.25;;;;;13.25;100.00;102061.72;5006220;28;45335;-73
2023/04/09 06:52:50;;;;;;;;;50.50;43.25;;;;;13.31;100.00;102048.53;5023501;28;45434;-73
2023/04/09 06:55:15;;;;;;;;;54.50;42.00;;;;;13.37;100.00;102062.50;5022196;28;45343;-74
2023/04/09 06:57:41;;;;;;;;;59.25;42.25;;;;;13.39;100.00;102054.19;5022182;28;45511;-74
2023/04/09 07:00:07;;;;;;;;;53.25;43.25;;;;;13.49;100.00;102053.25;5024102;28;45330;-74
2023/04/09 07:02:33;;;;;;;;;53.25;42.75;;;;;13.58;100.00;102051.56;5005283;28;47526;-73
2023/04/09 07:04:58;;;;;;;;;56.00;45.00;;;;;13.71;100.00;102052.19;5005185;28;45319;-74
2023/04/09 07:07:24;;;;;;;;;58.75;45.00;;;;;13.88;100.00;102059.72;5005719;28;45508;-73
2023/04/09 07:09:50;;;;;;;;;55.50;43.00;;;;;14.12;100.00;102055.78;5005853;28;45405;-73
2023/04/09 07:12:28;;;;;;;;;53.00;44.25;;;;;14.26;100.00;102053.50;5005390;28;47068;-72
2023/04/09 07:14:58;;;;;;;;;55.75;43.25;;;;;14.29;100.00;102052.38;5010473;28;45403;-74
2023/04/09 07:17:24;;;;;;;;;54.75;42.75;;;;;14.31;100.00;102055.84;5021251;28;45345;-74
2023/04/09 07:19:50;;;;;;;;;48.75;40.25;;;;;14.35;100.00;102057.28;5043572;28;45289;-73
2023/04/09 07:22:16;;;;;;;;;57.00;43.50;;;;;14.40;100.00;102049.53;5027269;28;45338;-74
2023/04/09 07:24:41;;;;;;;;;59.00;44.00;;;;;14.41;100.00;102056.75;5021477;28;45324;-74
2023/04/09 07:27:06;;;;;;;;;57.25;45.00;;;;;14.38;100.00;102051.56;5005420;28;45512;-74
2023/04/09 07:29:32;;;;;;;;;55.00;44.25;;;;;14.37;100.00;102049.81;5005574;28;45445;-73
2023/04/09 07:31:59;;;;;;;;;59.00;45.25;;;;;14.46;100.00;102053.59;5004902;28;46697;-73
2023/04/09 07:34:25;;;;;;;;;55.50;44.75;;;;;14.51;100.00;102052.16;5023090;28;45340;-73
2023/04/09 07:36:51;;;;;;;;;54.50;43.75;;;;;14.69;100.00;102046.84;5022820;28;45345;-73
2023/04/09 07:39:16;;;;;;;;;55.50;43.25;;;;;14.84;100.00;102044.53;5005362;28;45342;-73
2023/04/09 07:41:41;;;;;;;;;57.75;43.50;;;;;14.98;100.00;102044.94;5022516;28;46235;-73
2023/04/09 07:44:07;;;;;;;;;51.25;39.50;;;;;15.03;100.00;102052.75;5004763;28;45292;-73
2023/04/09 07:46:32;;;;;;;;;55.50;43.50;;;;;15.02;100.00;102043.66;5027719;28;45829;-73
2023/04/09 07:48:57;;;;;;;;;55.50;43.25;;;;;15.02;100.00;102040.06;5026933;28;45439;-73
2023/04/09 07:51:23;;;;;;;;;52.75;42.50;;;;;15.11;100.00;102050.16;5007850;28;47045;-73
2023/04/09 07:53:49;;;;;;;;;60.25;43.50;;;;;14.91;100.00;102049.28;5026370;28;45256;-74
2023/04/09 07:56:14;;;;;;;;;54.00;42.25;;;;;15.14;100.00;102044.34;5025728;28;45860;-74
2023/04/09 07:58:40;;;;;;;;;50.00;40.75;;;;;15.29;100.00;102051.09;5026753;28;45151;-74
2023/04/09 08:01:05;;;;;;;;;57.50;45.00;;;;;15.30;100.00;102049.22;5021135;28;46814;-74
2023/04/09 08:03:31;;;;;;;;;52.75;44.50;;;;;15.33;100.00;102049.81;5026017;28;45213;-74
2023/04/09 08:05:56;;;;;;;;;53.50;41.00;;;;;15.52;100.00;102048.88;5025834;28;45338;-73
2023/04/09 08:08:21;;;;;;;;;59.25;42.25;;;;;15.87;100.00;102050.94;5026344;28;45229;-74
2023/04/09 08:10:47;;;;;;;;;56.50;44.75;;;;;16.01;100.00;102033.13;5006904;28;47587;-74
2023/04/09 08:13:12;;;;;;;;;49.50;39.50;;;;;16.34;100.00;102054.44;5007873;28;45325;-74
2023/04/09 08:15:37;;;;;;;;;55.25;44.75;;;;;16.35;100.00;102053.44;5039423;28;45326;-73
2023/04/09 08:18:03;;;;;;;;;56.50;44.00;;;;;16.41;100.00;102057.44;5026372;28;45316;-73
2023/04/09 08:20:29;;;;;;;;;56.50;46.50;;;;;16.63;100.00;102048.78;5024010;28;48098;-75
2023/04/09 08:22:54;;;;;;;;;53.75;42.50;;;;;17.20;100.00;102054.78;5024432;28;45454;-73
2023/04/09 08:25:21;;;;;;;;;54.00;41.50;;;;;17.48;100.00;102037.13;5025640;28;45300;-73
2023/04/09 08:27:46;;;;;;;;;55.00;42.50;;;;;17.88;100.00;102059.38;5026312;28;45368;-74
2023/04/09 08:30:12;;;;;;;;;53.75;42.00;;;;;18.18;100.00;102051.59;5025676;28;46042;-74
2023/04/09 08:32:37;;;;;;;;;55.25;44.50;;;;;18.32;100.00;102048.22;5008010;28;45278;-74
2023/04/09 08:35:02;;;;;;;;;54.00;43.25;;;;;18.41;100.00;102049.94;5025819;28;45161;-74
2023/04/09 08:37:28;;;;;;;;;52.75;41.25;;;;;18.46;100.00;102036.56;5026031;28;45515;-74
2023/04/09 08:39:54;;;;;;;;;54.50;43.00;;;;;18.82;100.00;102039.03;5025247;28;46412;-74
2023/04/09 08:42:22;;;;;;;;;51.00;39.75;;;;;19.16;100.00;102014.94;5007844;28;45340;-76
2023/04/09 08:44:49;;;;;;;;;45.75;38.75;;;;;19.63;100.00;102034.34;5029898;28;45323;-73
2023/04/09 08:47:15;;;;;;;;;48.00;39.75;;;;;19.94;100.00;102036.31;5007855;28;45371;-74
2023/04/09 08:49:40;;;;;;;;;50.50;41.50;;;;;20.28;100.00;102033.22;5007290;28;47224;-74
2023/04/09 08:52:06;;;;;;;;;52.00;43.00;;;;;20.51;98.83;102023.97;5007396;28;45584;-74
2023/04/09 08:54:32;;;;;;;;;56.75;41.25;;;;;20.74;94.08;102029.53;5007291;28;45505;-74
2023/04/09 08:56:57;;;;;;;;;54.75;43.75;;;;;20.36;83.72;102024.94;5007676;28;45449;-74
2023/04/09 08:59:23;;;;;;;;;54.50;43.00;;;;;20.26;89.50;102027.03;5007424;28;47150;-75
2023/04/09 09:01:52;;;;;;;;;41.00;35.25;;;;;20.62;82.77;102025.44;5025285;28;45268;-74
2023/04/09 09:04:18;;;;;;;;;48.25;39.25;;;;;21.02;90.27;102020.66;5007453;28;45760;-75
2023/04/09 09:06:44;;;;;;;;;51.75;42.00;;;;;21.16;79.08;102011.53;5025442;28;45333;-75
2023/04/09 09:09:15;;;;;;;;;48.00;38.50;;;;;21.46;87.82;102013.34;5006983;28;47918;-74
2023/04/09 09:11:47;;;;;;;;;53.25;42.00;;;;;21.93;81.31;102009.31;5025422;28;45189;-75
2023/04/09 09:14:14;;;;;;;;;46.00;38.75;;;;;21.98;74.45;102002.22;5009347;28;45400;-75
2023/04/09 09:16:42;;;;;;;;;52.50;41.00;;;;;21.99;74.12;102008.63;5035373;28;45541;-75
2023/04/09 09:19:29;;;;;;;;;46.25;39.00;;;;;22.46;75.65;102000.66;5040230;28;47294;-76
2023/04/09 09:21:56;;;;;;;;;46.25;38.75;;;;;22.44;67.02;101996.38;5026756;28;45352;-74
2023/04/09 09:24:22;;;;;;;;;42.75;36.25;;;;;22.58;68.11;101997.34;5026671;28;45362;-75
2023/04/09 09:26:47;;;;;;;;;48.00;40.75;;;;;23.18;74.02;102000.53;5045070;28;45481;-74
2023/04/09 09:29:12;;;;;;;;;51.75;41.75;;;;;23.26;65.92;102000.38;5044439;28;45282;-73
2023/04/09 09:31:48;;;;;;;;;51.25;39.00;;;;;23.73;65.74;101993.28;5026608;28;45542;-75
2023/04/09 09:34:13;;;;;;;;;44.25;36.75;;;;;24.08;68.90;101985.75;5044901;28;45423;-74
2023/04/09 09:36:39;;;;;;;;;40.25;34.50;;;;;24.44;66.72;101989.13;5026716;28;45217;-74
2023/04/09 09:39:08;;;;;;;;;40.50;35.00;;;;;24.64;60.71;101980.81;5044187;28;45317;-75
2023/04/09 09:41:34;;;;;;;;;40.25;34.75;;;;;24.73;59.77;101979.56;5044280;28;45338;-75
2023/04/09 09:44:00;;;;;;;;;36.75;32.25;;;;;24.83;59.25;101973.59;5044512;28;45295;-74
2023/04/09 09:46:26;;;;;;;;;39.00;32.25;;;;;25.16;59.95;101979.16;5029339;28;45338;-74
2023/04/09 09:48:51;;;;;;;;;37.75;32.75;;;;;25.40;57.23;101969.31;5006812;28;47239;-74
2023/04/09 09:51:18;;;;;;;;;33.50;32.75;;;;;25.59;54.33;101962.88;5006380;28;45658;-75
2023/04/09 09:53:44;;;;;;;;;28.00;27.25;;;;;25.05;52.73;101965.91;5006847;28;45293;-75
2023/04/09 09:56:20;;;;;;;;;33.75;30.00;;;;;24.45;52.02;101976.09;5006583;28;45383;-75
2023/04/09 09:59:17;;;;;;;;;30.75;27.25;;;;;24.90;53.89;101960.56;5006439;28;47503;-75
2023/04/09 10:01:44;;;;;;;;;30.00;29.00;;;;;25.14;52.76;101959.91;5030583;28;45488;-74
2023/04/09 10:04:14;;;;;;;;;28.75;26.25;;;;;25.21;51.00;101977.44;5042628;28;45367;-75
2023/04/09 10:06:43;;;;;;;;;26.25;26.25;;;;;25.14;52.26;101970.16;5026500;28;46192;-76
2023/04/09 10:09:09;;;;;;;;;27.00;24.50;;;;;25.22;49.53;101956.06;5042586;28;47043;-76
2023/04/09 10:11:36;;;;;;;;;25.33;22.33;;;;;25.46;53.27;101952.59;5026118;28;45634;-75
2023/04/09 10:14:03;;;;;;;;;24.75;24.00;;;;;25.92;52.18;101951.63;5043863;28;45323;-75
2023/04/09 10:16:29;;;;;;;;;28.00;22.50;;;;;25.53;50.61;101950.66;5026786;28;45451;-76
2023/04/09 10:18:56;;;;;;;;;26.67;22.33;;;;;25.92;52.47;101943.28;5028976;28;45337;-75
2023/04/09 10:21:25;;;;;;;;;28.50;22.00;;;;;26.12;48.07;101952.38;5024248;28;45288;-76
2023/04/09 10:23:51;;;;;;;;;26.25;25.25;;;;;25.72;46.35;101948.03;5023851;28;45474;-75
2023/04/09 10:26:18;;;;;;;;;18.67;17.33;;;;;25.75;47.46;101951.25;5023030;28;45336;-74
2023/04/09 10:28:43;;;;;;;;;18.33;17.33;;;;;25.96;46.62;101925.03;5024068;28;46742;-74
2023/04/09 10:31:09;;;;;;;;;18.67;17.33;;;;;26.32;45.58;101936.44;5024088;28;45248;-74
2023/04/09 10:33:36;;;;;;;;;16.00;15.00;;;;;26.55;45.37;101947.00;5024028;28;45301;-74
2023/04/09 10:36:09;;;;;;;;;15.00;14.33;;;;;26.15;42.10;101939.97;5006662;28;45194;-75
2023/04/09 10:38:40;;;;;;;;;20.67;18.67;;;;;25.19;44.20;101956.50;5005518;28;47685;-75
2023/04/09 10:41:21;;;;;;;;;16.67;15.00;;;;;25.38;44.03;101941.69;5023675;28;45387;-75
2023/04/09 10:43:47;;;;;;;;;11.33;9.67;;;;;25.78;45.05;101950.84;5005908;28;45464;-75
2023/04/09 10:46:33;;;;;;;;;13.67;11.67;;;;;25.37;41.19;101937.19;5013780;28;45398;-74
2023/04/09 10:49:07;;;;;;;;;10.33;10.33;;;;;25.20;43.14;101931.22;5032515;28;46579;-75
2023/04/09 10:51:37;;;;;;;;;12.33;12.00;;;;;25.70;42.37;101936.28;5043171;28;45362;-75
2023/04/09 10:54:04;;;;;;;;;11.00;9.33;;;;;25.06;41.81;101912.84;5025049;28;45341;-74
2023/04/09 10:56:30;;;;;;;;;14.00;14.00;;;;;25.03;44.29;101931.91;5043855;28;45347;-75
2023/04/09 10:58:55;;;;;;;;;13.00;13.00;;;;;25.36;43.37;101923.50;5025509;28;47560;-74
2023/04/09 11:01:22;;;;;;;;;11.33;11.33;;;;;25.06;41.65;101929.53;5043099;28;45208;-74